METAR Reports From Nearby Airports

 

KLUD - Decatur, Texas, USA
Distance from Wildwood: ESE 5mi, 8km
Updated: Jan 19, 2019 2:55pm
Clear
Clear
 Wind from NW
Wind: NW 20 mph , 31 km/h, Gust: 29 mph , 46 km/h
Temperature: 36°F , 2°C
Wind Chill: 25°F , -4°C
Dew Point: 23°F , -5°C
Humidity: 60%
Barometer: 30.20 inHg , 1022.7 hPa
Clouds: Clear
Visibility: 10 miles , 16 km
2019/01/19 20:55 KLUD 192055Z AUTO 32017G25KT 10SM CLR 02/M05 A3020 RMK AO2 T00241048
KXBP - Bridgeport, Texas, USA
Distance from Wildwood: WSW 11mi, 18km
Updated: Jan 19, 2019 2:55pm
Clear
Clear
 Wind from NNW
Wind: NNW 18 mph , 30 km/h
Temperature: 39°F , 4°C
Wind Chill: 30°F , -1°C
Dew Point: 25°F , -4°C
Humidity: 56%
Barometer: 30.24 inHg , 1024 hPa
Clouds: Clear
Visibility: 10 miles , 16 km
2019/01/19 20:55 KXBP 192055Z AUTO 34016KT 10SM CLR 04/M04 A3024 RMK AO2 6//// T00411042
 
K0F2 - Bowie, Texas, USA
Distance from Wildwood: NNW 24mi, 39km
Updated: Jan 19, 2019 2:55pm
Partly Cloudy
Partly Cloudy
 Wind from NW
Wind: NW 24 mph , 39 km/h, Gust: 36 mph , 57 km/h
Temperature: 36°F , 2°C
Wind Chill: 24°F , -4°C
Dew Point: 23°F , -5°C
Humidity: 60%
Barometer: 30.22 inHg , 1023.4 hPa
Clouds: Partly Cloudy
Visibility: 10 miles , 16 km
Cloud details: Partly Cloudy 2900 ft
2019/01/19 20:55 K0F2 192055Z AUTO 32021G31KT 10SM SCT029 02/M05 A3022 RMK AO2 T00151051
KDTO - Denton, Texas, USA
Distance from Wildwood: E 27mi, 44km
Updated: Jan 19, 2019 2:53pm
Overcast
Overcast
 Wind from NNW
Wind: NNW 29 mph , 46 km/h, Gust: 35 mph , 56 km/h
Temperature: 37°F , 3°C
Wind Chill: 25°F , -4°C
Dew Point: 23°F , -5°C
Humidity: 56%
Barometer: 30.20 inHg , 1022.7 hPa
Clouds: Overcast
Visibility: 10 miles , 16 km
Cloud details: Overcast 3200 ft
2019/01/19 20:53 KDTO 192053Z 33025G30KT 10SM OVC032 03/M05 A3020 RMK AO2 PK WND 32031/2004 SLP226 T00281050 53002
 
KAFW - Ft Worth/Allianc, Texas, USA
Distance from Wildwood: SE 29mi, 46km
Updated: Jan 19, 2019 2:53pm
Partly Cloudy
Partly Cloudy
 Wind from NW
Wind: NW 30 mph , 48 km/h, Gust: 38 mph , 61 km/h
Temperature: 39°F , 4°C
Wind Chill: 27°F , -3°C
Dew Point: 23°F , -5°C
Humidity: 52%
Barometer: 30.19 inHg , 1022.4 hPa
Clouds: Partly Cloudy
Visibility: 10 miles , 16 km
Cloud details: Partly Cloudy 3000 ft
Partly Cloudy 25000 ft
2019/01/19 20:53 KAFW 192053Z 31026G33KT 10SM SCT030 SCT250 04/M05 A3019 RMK AO2 PK WND 33035/2017 SLP229 T00441050 55002 $
KFTW - Fort Worth, Texas, USA
Distance from Wildwood: SSE 34mi, 55km
Updated: Jan 19, 2019 2:53pm
Clear
Clear
 Wind from NW
Wind: NW 24 mph , 39 km/h, Gust: 40 mph , 65 km/h
Temperature: 39°F , 4°C
Wind Chill: 28°F , -2°C
Dew Point: 23°F , -5°C
Humidity: 52%
Barometer: 30.18 inHg , 1022 hPa
Clouds: Clear
Visibility: 10 miles , 16 km
2019/01/19 20:53 KFTW 192053Z 32021G35KT 10SM CLR 04/M05 A3018 RMK AO2 PK WND 31038/1959 SLP221 T00441050 55002
 
KNFW - Fort Worth Nas, Texas, USA
Distance from Wildwood: SSE 36mi, 58km
Updated: Jan 19, 2019 2:52pm
Few Clouds
Few Clouds
 Wind from NNW
Wind: NNW 24 mph , 39 km/h, Gust: 32 mph , 52 km/h
Temperature: 43°F , 6°C
Wind Chill: 34°F , 1°C
Dew Point: 23°F , -5°C
Humidity: 46%
Barometer: 30.19 inHg , 1022.4 hPa
Clouds: Few Clouds
Visibility: 10 miles , 16 km
Cloud details: Few Clouds 3300 ft
2019/01/19 20:52 KNFW 192052Z 33021G28KT 10SM FEW033 06/M05 A3019 RMK AO2 PK WND 32035/2022 SLP206 T00611050 55004 VISNO N $
KGLE - Gainesville, Texas, USA
Distance from Wildwood: NE 38mi, 61km
Updated: Jan 19, 2019 2:55pm
Mostly Cloudy
Mostly Cloudy
 Wind from NE
Wind: NE 28 mph , 44 km/h, Gust: 33 mph , 54 km/h
Temperature: 34°F , 1°C
Wind Chill: 21°F , -6°C
Dew Point: 21°F , -6°C
Humidity: 60%
Barometer: 30.22 inHg , 1023.4 hPa
Clouds: Mostly Cloudy
Visibility: 10 miles , 16 km
Cloud details: Mostly Cloudy 2900 ft
2019/01/19 20:55 KGLE 192055Z AUTO 04024G29KT 10SM BKN029 01/M06 A3022 RMK AO2 T00061056
 
KMWL - Mineral Wells, Texas, USA
Distance from Wildwood: SW 41mi, 65km
Updated: Jan 19, 2019 2:53pm
Few Clouds
Few Clouds
 Wind from NNW
Wind: NNW 22 mph , 35 km/h, Gust: 33 mph , 54 km/h
Temperature: 43°F , 6°C
Wind Chill: 34°F , 1°C
Dew Point: 21°F , -6°C
Humidity: 42%
Barometer: 30.21 inHg , 1023 hPa
Clouds: Few Clouds
Visibility: 10 miles , 16 km
Cloud details: Few Clouds 4300 ft
2019/01/19 20:53 KMWL 192053Z AUTO 33019G29KT 10SM FEW043 06/M06 A3021 RMK AO2 PK WND 34034/2040 SLP229 T00561056 55007
KDFW - Dallas/Ft Worth, Texas, USA
Distance from Wildwood: ESE 45mi, 73km
Updated: Jan 19, 2019 2:53pm
Mostly Cloudy
Mostly Cloudy
 Wind from NW
Wind: NW 31 mph , 50 km/h, Gust: 39 mph , 63 km/h
Temperature: 37°F , 3°C
Wind Chill: 24°F , -4°C
Dew Point: 25°F , -4°C
Humidity: 60%
Barometer: 30.15 inHg , 1021 hPa
Clouds: Mostly Cloudy
Visibility: 10 miles , 16 km
Cloud details: Mostly Cloudy 3200 ft
2019/01/19 20:53 KDFW 192053Z 31027G34KT 10SM BKN032 03/M04 A3015 RMK AO2 PK WND 32035/2019 SLP209 T00331044 53002